Time;durP1;ratioP1;P1;durP2;ratioP2;P2;SDS_P1;SDS_P2;PMS_P1;PMS_P2;Temp;Humidity;BMP_temperature;BMP_pressure;BME280_temperature;BME280_humidity;BME280_pressure;Samples;Min_cycle;Max_cycle;Signal;HPM_P1;HPM_P2
2023/09/04 00:00:31;;;;;;;14.32;11.43;;;;;;;12.28;100.00;102909.47;5032188;28;20414;-82
2023/09/04 00:02:57;;;;;;;10.82;9.05;;;;;;;12.26;100.00;102916.72;5033129;28;20051;-80
2023/09/04 00:05:22;;;;;;;10.98;8.38;;;;;;;12.20;100.00;102915.28;5032586;28;20056;-80
2023/09/04 00:07:47;;;;;;;12.13;9.52;;;;;;;12.15;100.00;102907.59;5030835;28;20029;-80
2023/09/04 00:10:13;;;;;;;10.00;8.10;;;;;;;12.10;100.00;102907.00;5031238;28;20034;-79
2023/09/04 00:12:39;;;;;;;9.82;8.27;;;;;;;12.08;100.00;102902.75;5032189;28;20043;-79
2023/09/04 00:15:05;;;;;;;11.80;9.52;;;;;;;12.07;100.00;102904.53;5032675;28;20043;-79
2023/09/04 00:17:30;;;;;;;12.98;10.65;;;;;;;12.05;100.00;102901.13;5032368;28;20433;-81
2023/09/04 00:19:56;;;;;;;15.23;10.52;;;;;;;12.07;100.00;102901.03;5031943;28;20075;-82
2023/09/04 00:22:22;;;;;;;14.90;10.35;;;;;;;12.07;100.00;102901.03;5032180;28;20084;-82
2023/09/04 00:24:47;;;;;;;9.55;7.88;;;;;;;12.00;100.00;102897.88;5031776;28;20036;-81
2023/09/04 00:27:13;;;;;;;10.43;8.38;;;;;;;11.95;100.00;102890.19;5035379;28;20045;-82
2023/09/04 00:29:38;;;;;;;13.15;9.93;;;;;;;11.94;100.00;102896.50;5034902;28;20053;-81
2023/09/04 00:32:05;;;;;;;12.88;10.27;;;;;;;11.93;100.00;102900.09;5036164;28;20037;-81
2023/09/04 00:34:31;;;;;;;15.05;9.23;;;;;;;11.92;100.00;102906.34;5035117;28;20394;-81
2023/09/04 00:36:56;;;;;;;11.13;9.20;;;;;;;11.88;100.00;102899.50;5035854;28;20034;-81
2023/09/04 00:39:22;;;;;;;10.48;8.30;;;;;;;11.85;100.00;102907.69;5034797;28;20390;-81
2023/09/04 00:41:47;;;;;;;11.48;9.43;;;;;;;11.82;100.00;102911.44;5035887;28;20068;-81
2023/09/04 00:44:12;;;;;;;12.43;9.55;;;;;;;11.78;100.00;102907.22;5036262;28;20049;-79
2023/09/04 00:46:40;;;;;;;14.90;10.25;;;;;;;11.78;100.00;102914.38;5035428;28;20033;-81
2023/09/04 00:49:05;;;;;;;15.32;12.00;;;;;;;11.79;100.00;102914.28;5035943;28;20041;-79
2023/09/04 00:51:31;;;;;;;16.20;12.15;;;;;;;11.80;100.00;102917.81;5036087;28;20045;-79
2023/09/04 00:53:56;;;;;;;16.60;11.23;;;;;;;11.77;100.00;102904.66;5035309;28;20065;-79
2023/09/04 00:56:24;;;;;;;14.93;9.38;;;;;;;11.71;100.00;102897.91;5035805;28;20033;-79
2023/09/04 00:58:49;;;;;;;11.90;9.68;;;;;;;11.69;100.00;102896.28;5035531;28;20063;-79
2023/09/04 01:01:15;;;;;;;14.30;11.45;;;;;;;11.67;100.00;102898.19;5035939;28;20485;-79
2023/09/04 01:03:41;;;;;;;13.52;11.00;;;;;;;11.68;100.00;102899.91;5035419;28;20070;-79
2023/09/04 01:06:06;;;;;;;14.32;10.23;;;;;;;11.67;100.00;102901.69;5035696;28;20065;-79
2023/09/04 01:08:32;;;;;;;13.57;10.70;;;;;;;11.65;100.00;102904.47;5035827;28;20045;-79
2023/09/04 01:10:57;;;;;;;14.38;11.32;;;;;;;11.65;100.00;102906.28;5035052;28;20451;-79
2023/09/04 01:13:32;;;;;;;15.85;11.68;;;;;;;11.62;100.00;102910.00;5034478;28;20458;-81
2023/09/04 01:15:59;;;;;;;15.90;11.40;;;;;;;11.61;100.00;102904.75;5033970;28;20025;-81
2023/09/04 01:18:24;;;;;;;17.50;12.18;;;;;;;11.62;100.00;102909.16;5035640;28;20515;-81
2023/09/04 01:21:05;;;;;;;13.25;10.25;;;;;;;11.58;100.00;102903.13;5035153;28;20029;-81
2023/09/04 01:23:32;;;;;;;13.40;9.75;;;;;;;11.56;100.00;102901.53;5035732;28;20116;-81
2023/09/04 01:26:06;;;;;;;12.38;8.80;;;;;;;11.51;100.00;102901.81;5033683;28;20037;-81
2023/09/04 01:28:42;;;;;;;14.30;9.88;;;;;;;11.50;100.00;102893.91;5035439;28;20080;-81
2023/09/04 01:31:19;;;;;;;16.05;9.63;;;;;;;11.49;100.00;102893.03;5035642;28;20087;-80
2023/09/04 01:33:57;;;;;;;12.38;9.35;;;;;;;11.47;100.00;102892.28;5034993;28;20034;-81
2023/09/04 01:36:26;;;;;;;10.07;8.30;;;;;;;11.44;100.00;102895.16;5035819;28;20026;-81
2023/09/04 01:38:52;;;;;;;15.55;11.35;;;;;;;11.46;100.00;102890.56;5034101;28;20426;-80
2023/09/04 01:41:18;;;;;;;20.67;11.15;;;;;;;11.48;100.00;102894.00;5034211;28;20453;-80
2023/09/04 01:43:43;;;;;;;14.98;10.60;;;;;;;11.46;100.00;102896.78;5034706;28;20030;-79
2023/09/04 01:46:09;;;;;;;16.95;10.77;;;;;;;11.44;100.00;102893.31;5033378;28;20466;-79
2023/09/04 01:48:35;;;;;;;15.02;10.77;;;;;;;11.43;100.00;102888.94;5033700;28;20042;-79
2023/09/04 01:51:00;;;;;;;15.35;10.50;;;;;;;11.41;100.00;102882.00;5034317;28;20034;-79
2023/09/04 01:53:26;;;;;;;16.05;11.23;;;;;;;11.39;100.00;102889.22;5034722;28;20120;-80
2023/09/04 01:55:51;;;;;;;16.15;11.45;;;;;;;11.40;100.00;102883.81;5034847;28;20061;-79
2023/09/04 01:58:16;;;;;;;14.05;10.80;;;;;;;11.37;100.00;102885.81;5034844;28;20029;-79
2023/09/04 02:00:43;;;;;;;12.43;9.80;;;;;;;11.37;100.00;102894.66;5034788;28;20521;-79
2023/09/04 02:03:08;;;;;;;18.48;10.85;;;;;;;11.34;100.00;102894.00;5034137;28;20029;-79
2023/09/04 02:05:37;;;;;;;15.50;11.48;;;;;;;11.32;100.00;102895.91;5033615;28;20116;-79
2023/09/04 02:08:03;;;;;;;17.88;12.05;;;;;;;11.30;100.00;102893.34;5034351;28;20040;-80
2023/09/04 02:10:33;;;;;;;13.07;9.40;;;;;;;11.27;100.00;102896.16;5033509;28;20037;-79
2023/09/04 02:12:59;;;;;;;14.65;10.50;;;;;;;11.24;100.00;102886.56;5034205;28;20462;-79
2023/09/04 02:15:24;;;;;;;15.73;10.88;;;;;;;11.24;100.00;102883.91;5034431;28;20148;-79
2023/09/04 02:17:51;;;;;;;17.77;12.77;;;;;;;11.23;100.00;102886.66;5033837;28;20454;-80
2023/09/04 02:20:17;;;;;;;14.85;10.55;;;;;;;11.19;100.00;102880.66;5033106;28;20126;-79
2023/09/04 02:22:42;;;;;;;12.00;8.75;;;;;;;11.14;100.00;102882.75;5033228;28;20045;-79
2023/09/04 02:25:07;;;;;;;10.38;8.20;;;;;;;11.10;100.00;102876.72;5033742;28;20042;-79
2023/09/04 02:27:33;;;;;;;20.45;11.68;;;;;;;11.10;100.00;102884.72;5034222;28;20441;-79
2023/09/04 02:29:58;;;;;;;18.80;12.18;;;;;;;11.14;100.00;102881.88;5033938;28;20116;-79
2023/09/04 02:32:23;;;;;;;13.82;10.98;;;;;;;11.14;100.00;102885.41;5033905;28;20116;-79
2023/09/04 02:34:49;;;;;;;15.18;10.75;;;;;;;11.09;100.00;102883.03;5016465;28;20061;-79
2023/09/04 02:37:14;;;;;;;10.98;8.80;;;;;;;11.07;100.00;102873.41;5034426;28;20041;-79
2023/09/04 02:39:40;;;;;;;14.20;10.35;;;;;;;11.05;100.00;102872.66;5033935;28;20382;-79
2023/09/04 02:42:05;;;;;;;20.45;11.85;;;;;;;11.05;100.00;102873.50;5033567;28;20102;-79
2023/09/04 02:44:30;;;;;;;14.82;9.88;;;;;;;11.04;100.00;102857.59;5033970;28;20041;-79
2023/09/04 02:46:56;;;;;;;15.25;9.98;;;;;;;10.99;100.00;102852.56;5032460;28;20037;-79
2023/09/04 02:49:21;;;;;;;16.27;10.35;;;;;;;10.97;100.00;102842.94;5033435;28;20044;-79
2023/09/04 02:51:47;;;;;;;17.38;11.40;;;;;;;10.94;100.00;102842.19;5032309;28;20119;-79
2023/09/04 02:54:12;;;;;;;15.73;8.90;;;;;;;10.91;100.00;102842.38;5033023;28;20038;-79
2023/09/04 02:56:38;;;;;;;9.70;8.02;;;;;;;10.85;100.00;102842.75;5033737;28;20034;-79
2023/09/04 02:59:03;;;;;;;14.30;10.77;;;;;;;10.84;100.00;102845.47;5032088;28;20029;-79
2023/09/04 03:01:28;;;;;;;13.35;9.82;;;;;;;10.83;100.00;102841.13;5033401;28;20057;-79
2023/09/04 03:03:54;;;;;;;17.83;12.20;;;;;;;10.84;100.00;102848.13;5031811;28;20060;-79
2023/09/04 03:06:19;;;;;;;16.70;11.13;;;;;;;10.84;100.00;102849.00;5033291;28;20030;-79
2023/09/04 03:08:44;;;;;;;15.68;10.85;;;;;;;10.82;100.00;102844.72;5033576;28;20034;-79
2023/09/04 03:11:10;;;;;;;13.65;10.07;;;;;;;10.76;100.00;102838.81;5032846;28;20124;-79
2023/09/04 03:13:38;;;;;;;13.35;9.52;;;;;;;10.72;100.00;102833.78;5033198;28;20034;-79
2023/09/04 03:16:07;;;;;;;13.60;9.95;;;;;;;10.69;100.00;102828.59;5032763;28;20500;-80
2023/09/04 03:18:33;;;;;;;13.05;9.93;;;;;;;10.70;100.00;102835.66;5033309;28;20040;-78
2023/09/04 03:20:59;;;;;;;15.60;11.23;;;;;;;10.68;100.00;102832.25;5032574;28;20026;-79
2023/09/04 03:23:25;;;;;;;14.25;9.60;;;;;;;10.67;100.00;102825.19;5033313;28;20470;-79
2023/09/04 03:25:50;;;;;;;10.70;8.60;;;;;;;10.63;100.00;102819.19;5033293;28;20043;-79
2023/09/04 03:28:15;;;;;;;17.17;10.15;;;;;;;10.64;100.00;102828.88;5032608;28;20116;-79
2023/09/04 03:30:41;;;;;;;12.63;9.60;;;;;;;10.62;100.00;102830.78;5031481;28;20508;-79
2023/09/04 03:33:07;;;;;;;17.05;11.73;;;;;;;10.64;100.00;102833.34;5032662;28;20029;-79
2023/09/04 03:35:32;;;;;;;16.70;11.88;;;;;;;10.64;100.00;102828.88;5032855;28;20445;-78
2023/09/04 03:37:58;;;;;;;16.48;11.07;;;;;;;10.61;100.00;102826.41;5032720;28;20037;-79
2023/09/04 03:40:25;;;;;;;14.07;9.88;;;;;;;10.59;100.00;102820.31;5032965;28;20455;-79
2023/09/04 03:42:51;;;;;;;13.55;9.40;;;;;;;10.54;100.00;102817.94;5031591;28;20052;-79
2023/09/04 03:45:17;;;;;;;13.35;10.32;;;;;;;10.54;100.00;102819.75;5032418;28;20033;-78
2023/09/04 03:47:46;;;;;;;13.07;9.98;;;;;;;10.52;100.00;102814.50;5032710;28;20068;-78
2023/09/04 03:50:12;;;;;;;18.63;11.52;;;;;;;10.51;100.00;102806.59;5032389;28;20087;-79
2023/09/04 03:52:38;;;;;;;12.05;9.38;;;;;;;10.48;100.00;102805.00;5031777;28;20025;-78
2023/09/04 03:55:11;;;;;;;10.38;7.97;;;;;;;10.46;100.00;102803.38;5032347;28;20049;-79
2023/09/04 03:57:36;;;;;;;18.35;11.35;;;;;;;10.43;100.00;102804.41;5031581;28;20515;-78
2023/09/04 04:00:10;;;;;;;13.05;9.95;;;;;;;10.46;100.00;102800.69;5030904;28;20033;-79
2023/09/04 04:02:36;;;;;;;19.65;12.27;;;;;;;10.46;100.00;102806.88;5032529;28;20040;-78
2023/09/04 04:05:02;;;;;;;14.52;9.75;;;;;;;10.47;100.00;102808.59;5030815;28;20037;-78
2023/09/04 04:07:27;;;;;;;11.35;8.80;;;;;;;10.45;100.00;102804.31;5032633;28;20026;-78
2023/09/04 04:09:53;;;;;;;15.13;10.25;;;;;;;10.46;100.00;102808.69;5032199;28;20040;-78
2023/09/04 04:12:18;;;;;;;16.05;10.82;;;;;;;10.45;100.00;102813.16;5031732;28;20055;-78
2023/09/04 04:14:43;;;;;;;14.15;10.30;;;;;;;10.46;100.00;102814.84;5032140;28;20143;-78
2023/09/04 04:17:09;;;;;;;12.15;9.02;;;;;;;10.43;100.00;102815.03;5032047;28;20386;-78
2023/09/04 04:19:34;;;;;;;10.85;7.25;;;;;;;10.39;100.00;102816.19;5031020;28;20494;-78
2023/09/04 04:22:00;;;;;;;11.80;9.40;;;;;;;10.38;100.00;102828.63;5032380;28;20065;-79
2023/09/04 04:24:27;;;;;;;17.10;11.55;;;;;;;10.43;100.00;102819.50;5031600;28;20120;-78
2023/09/04 04:26:52;;;;;;;13.70;10.07;;;;;;;10.43;100.00;102817.69;5031226;28;20033;-77
2023/09/04 04:29:18;;;;;;;15.02;10.63;;;;;;;10.43;100.00;102822.19;5031873;28;20040;-78
2023/09/04 04:31:43;;;;;;;13.85;10.30;;;;;;;10.41;100.00;102824.94;5032308;28;20421;-78
2023/09/04 04:34:09;;;;;;;13.48;9.13;;;;;;;10.38;100.00;102819.78;5031826;28;20382;-78
2023/09/04 04:36:34;;;;;;;12.55;9.02;;;;;;;10.35;100.00;102815.50;5031226;28;20068;-78
2023/09/04 04:39:00;;;;;;;16.50;11.15;;;;;;;10.32;100.00;102814.78;5031018;28;20030;-77
2023/09/04 04:41:25;;;;;;;15.18;11.10;;;;;;;10.34;100.00;102818.25;5031597;28;20375;-77
2023/09/04 04:43:51;;;;;;;14.52;10.40;;;;;;;10.31;100.00;102819.25;5030528;28;20110;-78
2023/09/04 04:46:17;;;;;;;13.00;8.85;;;;;;;10.27;100.00;102823.03;5031851;28;20029;-78
2023/09/04 04:48:42;;;;;;;14.75;10.57;;;;;;;10.26;100.00;102828.47;5031917;28;20037;-80
2023/09/04 04:51:10;;;;;;;12.95;10.00;;;;;;;10.23;100.00;102825.00;5031574;28;20041;-79
2023/09/04 04:53:36;;;;;;;12.52;9.15;;;;;;;10.20;100.00;102816.34;5031094;28;20037;-79
2023/09/04 04:56:02;;;;;;;14.52;10.25;;;;;;;10.19;100.00;102815.47;5030622;28;20513;-79
2023/09/04 04:58:27;;;;;;;12.35;9.35;;;;;;;10.20;100.00;102816.34;5031636;28;20248;-78
2023/09/04 05:00:52;;;;;;;13.85;9.70;;;;;;;10.20;100.00;102819.88;5030554;28;20381;-78
2023/09/04 05:03:18;;;;;;;13.85;10.65;;;;;;;10.20;100.00;102811.03;5031296;28;20053;-79
2023/09/04 05:05:46;;;;;;;13.68;9.43;;;;;;;10.18;100.00;102813.78;5030711;28;20038;-79
2023/09/04 05:08:12;;;;;;;16.38;10.48;;;;;;;10.18;100.00;102810.25;5031637;28;20048;-78
2023/09/04 05:10:38;;;;;;;15.05;11.48;;;;;;;10.20;100.00;102805.72;5030791;28;20462;-79
2023/09/04 05:13:03;;;;;;;18.20;12.63;;;;;;;10.22;100.00;102798.50;5034277;28;20037;-79
2023/09/04 05:15:28;;;;;;;19.45;12.98;;;;;;;10.24;100.00;102805.44;5035168;28;20470;-80
2023/09/04 05:17:54;;;;;;;14.88;10.82;;;;;;;10.26;100.00;102802.69;5035679;28;20029;-80
2023/09/04 05:20:19;;;;;;;14.20;10.15;;;;;;;10.29;100.00;102804.34;5034871;28;20030;-78
2023/09/04 05:22:45;;;;;;;24.08;13.07;;;;;;;10.32;100.00;102804.16;5035471;28;20034;-80
2023/09/04 05:25:11;;;;;;;18.73;12.07;;;;;;;10.35;100.00;102809.31;5035589;28;20121;-78
2023/09/04 05:27:37;;;;;;;13.57;10.65;;;;;;;10.37;100.00;102810.09;5035452;28;20087;-78
2023/09/04 05:30:03;;;;;;;18.80;11.55;;;;;;;10.37;100.00;102802.94;5035427;28;20072;-78
2023/09/04 05:32:28;;;;;;;20.13;12.85;;;;;;;10.44;100.00;102811.44;5033746;28;20132;-78
2023/09/04 05:34:54;;;;;;;16.10;11.98;;;;;;;10.50;100.00;102815.56;5035358;28;20526;-79
2023/09/04 05:37:20;;;;;;;23.77;14.45;;;;;;;10.53;100.00;102815.38;5033505;28;20037;-79
2023/09/04 05:39:46;;;;;;;24.67;16.70;;;;;;;10.57;100.00;102811.59;5017385;28;20411;-78
2023/09/04 05:42:11;;;;;;;21.83;14.95;;;;;;;10.61;100.00;102815.75;5034830;28;20080;-78
2023/09/04 05:44:36;;;;;;;21.77;13.57;;;;;;;10.65;100.00;102811.97;5034508;28;20029;-78
2023/09/04 05:47:03;;;;;;;16.15;11.80;;;;;;;10.69;100.00;102809.97;5035159;28;20453;-78
2023/09/04 05:49:28;;;;;;;17.90;12.32;;;;;;;10.74;100.00;102805.25;5034627;28;20033;-78
2023/09/04 05:51:54;;;;;;;19.52;13.25;;;;;;;10.81;100.00;102803.94;5035004;28;20108;-78
2023/09/04 05:54:20;;;;;;;21.30;13.55;;;;;;;10.87;100.00;102808.88;5034275;28;20029;-78
2023/09/04 05:56:45;;;;;;;19.40;12.18;;;;;;;10.91;100.00;102807.75;5033624;28;20037;-79
2023/09/04 05:59:14;;;;;;;18.40;12.55;;;;;;;10.97;100.00;102806.50;5035012;28;20124;-78
2023/09/04 06:01:39;;;;;;;16.42;11.98;;;;;;;10.99;100.00;102801.94;5034370;28;20026;-78
2023/09/04 06:04:05;;;;;;;17.40;11.57;;;;;;;11.06;100.00;102807.75;5035070;28;20038;-78
2023/09/04 06:06:30;;;;;;;19.00;12.40;;;;;;;11.10;100.00;102803.94;5034307;28;20030;-79
2023/09/04 06:08:56;;;;;;;20.60;13.82;;;;;;;11.14;100.00;102797.50;5034491;28;20045;-80
2023/09/04 06:11:21;;;;;;;18.30;13.13;;;;;;;11.21;100.00;102798.81;5034566;28;20124;-79
2023/09/04 06:13:47;;;;;;;22.95;12.90;;;;;;;11.27;100.00;102793.13;5033309;28;20044;-80
2023/09/04 06:16:13;;;;;;;22.08;13.82;;;;;;;11.33;100.00;102796.34;5034749;28;20052;-80
2023/09/04 06:18:38;;;;;;;22.50;14.52;;;;;;;11.38;100.00;102794.25;5034264;28;20688;-79
2023/09/04 06:21:04;;;;;;;24.88;14.98;;;;;;;11.47;100.00;102791.00;5033429;28;20052;-80
2023/09/04 06:23:29;;;;;;;26.75;14.90;;;;;;;11.53;100.00;102792.44;5033690;28;20116;-79
2023/09/04 06:25:54;;;;;;;21.20;14.70;;;;;;;11.59;100.00;102792.88;5034425;28;20432;-80
2023/09/04 06:28:20;;;;;;;23.85;15.20;;;;;;;11.68;100.00;102794.09;5033737;28;20470;-78
2023/09/04 06:30:45;;;;;;;21.13;15.13;;;;;;;11.74;100.00;102791.03;5034214;28;20167;-79
2023/09/04 06:33:11;;;;;;;23.42;15.57;;;;;;;11.82;100.00;102791.41;5034347;28;20060;-78
2023/09/04 06:35:37;;;;;;;20.40;14.15;;;;;;;11.89;100.00;102791.84;5033705;28;20036;-78
2023/09/04 06:38:03;;;;;;;21.30;14.90;;;;;;;11.94;100.00;102795.13;5034157;28;20484;-78
2023/09/04 06:40:29;;;;;;;19.02;13.50;;;;;;;12.01;100.00;102789.38;5033645;28;20120;-77
2023/09/04 06:42:54;;;;;;;22.90;14.05;;;;;;;12.09;100.00;102792.38;5033919;28;20037;-78
2023/09/04 06:45:20;;;;;;;21.67;14.57;;;;;;;12.19;100.00;102790.81;5032848;28;20033;-78
2023/09/04 06:47:46;;;;;;;25.30;14.27;;;;;;;12.29;100.00;102785.72;5032247;28;20034;-78
2023/09/04 06:50:11;;;;;;;24.58;14.60;;;;;;;12.40;100.00;102788.50;5032591;28;20037;-78
2023/09/04 06:52:37;;;;;;;21.45;14.48;;;;;;;12.52;100.00;102790.38;5032337;28;20037;-78
2023/09/04 06:55:03;;;;;;;19.63;14.13;;;;;;;12.65;100.00;102789.53;5033595;28;20092;-78
2023/09/04 06:57:29;;;;;;;18.38;12.85;;;;;;;12.73;100.00;102787.19;5033381;28;20046;-78
2023/09/04 06:59:57;;;;;;;16.52;12.75;;;;;;;12.83;100.00;102785.59;5033656;28;20431;-78
2023/09/04 07:02:23;;;;;;;16.63;13.30;;;;;;;12.91;100.00;102792.22;5033850;28;20029;-79
2023/09/04 07:04:50;;;;;;;19.27;13.95;;;;;;;13.02;100.00;102793.19;5033850;28;20036;-80
2023/09/04 07:07:15;;;;;;;19.67;12.95;;;;;;;13.11;100.00;102791.69;5032519;28;20045;-79
2023/09/04 07:09:40;;;;;;;22.30;13.57;;;;;;;13.21;100.00;102791.88;5033030;28;20485;-80
2023/09/04 07:12:07;;;;;;;19.55;13.00;;;;;;;13.31;100.00;102787.56;5033592;28;20122;-80
2023/09/04 07:14:32;;;;;;;17.63;12.77;;;;;;;13.44;100.00;102782.25;5033260;28;20527;-80
2023/09/04 07:16:58;;;;;;;17.70;12.80;;;;;;;13.55;100.00;102786.81;5033591;28;20061;-77
2023/09/04 07:19:24;;;;;;;16.83;12.63;;;;;;;13.64;100.00;102782.63;5033340;28;20112;-76
2023/09/04 07:21:49;;;;;;;15.80;12.07;;;;;;;13.73;100.00;102788.16;5033277;28;20129;-76
2023/09/04 07:24:15;;;;;;;13.40;11.68;;;;;;;13.84;100.00;102786.50;5033687;28;20041;-77
2023/09/04 07:26:40;;;;;;;16.60;12.40;;;;;;;13.90;100.00;102778.03;5032608;28;20037;-77
2023/09/04 07:29:05;;;;;;;15.50;11.52;;;;;;;14.00;100.00;102775.53;5033317;28;20529;-76
2023/09/04 07:31:31;;;;;;;17.23;12.43;;;;;;;14.08;100.00;102768.63;5032544;28;20513;-77
2023/09/04 07:33:58;;;;;;;18.48;12.70;;;;;;;14.20;100.00;102768.69;5033157;28;20428;-77
2023/09/04 07:36:23;;;;;;;20.23;13.55;;;;;;;14.30;100.00;102772.34;5032325;28;20397;-76
2023/09/04 07:38:49;;;;;;;15.48;12.80;;;;;;;14.40;100.00;102784.06;5032495;28;20041;-77
2023/09/04 07:41:14;;;;;;;18.17;13.02;;;;;;;14.51;100.00;102785.06;5031828;28;20036;-77
2023/09/04 07:43:39;;;;;;;16.55;12.85;;;;;;;14.60;100.00;102790.59;5032604;28;20049;-77
2023/09/04 07:46:05;;;;;;;18.02;12.85;;;;;;;14.73;100.00;102790.50;5032990;28;20041;-76
2023/09/04 07:48:33;;;;;;;16.08;12.43;;;;;;;14.88;100.00;102791.16;5032596;28;20109;-77
2023/09/04 07:50:59;;;;;;;15.35;11.82;;;;;;;15.03;100.00;102786.41;5033016;28;20079;-77
2023/09/04 07:53:24;;;;;;;16.92;11.68;;;;;;;15.19;100.00;102787.88;5032778;28;20140;-75
2023/09/04 07:55:51;;;;;;;25.75;11.75;;;;;;;15.35;100.00;102780.31;5031060;28;20119;-76
2023/09/04 07:58:17;;;;;;;16.67;12.38;;;;;;;15.51;100.00;102782.63;5033020;28;20037;-79
2023/09/04 08:00:45;;;;;;;15.07;11.90;;;;;;;15.70;100.00;102795.38;5032664;28;20552;-81
2023/09/04 08:03:10;;;;;;;16.95;11.63;;;;;;;15.89;100.00;102791.25;5033193;28;20029;-81
2023/09/04 08:05:35;;;;;;;13.65;11.60;;;;;;;16.09;100.00;102786.88;5032860;28;20489;-81
2023/09/04 08:08:02;;;;;;;16.83;11.30;;;;;;;16.38;100.00;102793.34;5032700;28;20032;-81
2023/09/04 08:10:27;;;;;;;14.65;11.15;;;;;;;16.75;100.00;102798.25;5032907;28;20076;-81
2023/09/04 08:12:52;;;;;;;15.40;11.30;;;;;;;17.36;100.00;102798.44;5031078;28;20065;-81
2023/09/04 08:15:18;;;;;;;14.73;10.57;;;;;;;17.83;100.00;102796.00;5032992;28;20462;-81
2023/09/04 08:17:45;;;;;;;15.25;10.95;;;;;;;18.19;100.00;102790.13;5032765;28;20037;-82
2023/09/04 08:20:11;;;;;;;20.50;11.32;;;;;;;18.50;100.00;102785.41;5031480;28;20029;-81
2023/09/04 08:22:37;;;;;;;24.40;10.93;;;;;;;18.69;100.00;102784.53;5032258;28;20040;-81
2023/09/04 08:25:02;;;;;;;14.88;10.13;;;;;;;18.83;100.00;102784.03;5032438;28;20025;-80
2023/09/04 08:27:28;;;;;;;12.75;10.25;;;;;;;19.03;100.00;102774.09;5032512;28;20070;-81
2023/09/04 08:29:53;;;;;;;17.17;9.98;;;;;;;19.22;100.00;102780.38;5032273;28;20470;-82
2023/09/04 08:32:18;;;;;;;14.15;9.93;;;;;;;19.47;100.00;102767.19;5031235;28;20445;-82
2023/09/04 08:34:44;;;;;;;13.70;9.88;;;;;;;19.62;100.00;102771.06;5032272;28;20034;-82
2023/09/04 08:37:10;;;;;;;12.65;9.13;;;;;;;19.83;100.00;102778.91;5032657;28;20049;-82
2023/09/04 08:39:35;;;;;;;15.32;9.75;;;;;;;19.93;100.00;102769.88;5032187;28;20034;-80
2023/09/04 08:42:03;;;;;;;14.80;9.32;;;;;;;20.00;100.00;102768.25;5030792;28;20036;-80
2023/09/04 08:44:30;;;;;;;9.90;8.77;;;;;;;20.18;100.00;102765.53;5031404;28;20033;-82
2023/09/04 08:46:58;;;;;;;11.68;9.45;;;;;;;20.34;100.00;102757.56;5032537;28;20061;-80
2023/09/04 08:49:25;;;;;;;12.73;9.43;;;;;;;20.65;100.00;102751.69;5036723;28;20099;-79
2023/09/04 08:51:52;;;;;;;11.48;9.10;;;;;;;21.13;100.00;102749.44;5035934;28;20052;-80
2023/09/04 08:54:18;;;;;;;11.57;8.77;;;;;;;21.48;100.00;102742.94;5036356;28;20457;-81
2023/09/04 08:56:44;;;;;;;11.10;8.68;;;;;;;21.96;100.00;102742.34;5036003;28;20049;-81
2023/09/04 08:59:10;;;;;;;12.45;9.13;;;;;;;22.59;100.00;102745.41;5035995;28;20042;-82
2023/09/04 09:01:36;;;;;;;11.65;8.43;;;;;;;23.17;100.00;102744.22;5034885;28;20474;-83
2023/09/04 09:04:02;;;;;;;11.32;8.75;;;;;;;23.48;100.00;102743.34;5035671;28;20025;-82
2023/09/04 09:06:28;;;;;;;10.80;8.27;;;;;;;23.99;100.00;102744.72;5035860;28;20443;-81
2023/09/04 09:08:56;;;;;;;10.77;8.25;;;;;;;24.07;100.00;102745.50;5035698;28;20040;-82
2023/09/04 09:11:22;;;;;;;10.40;7.13;;;;;;;24.45;100.00;102742.78;5036084;28;20091;-82
2023/09/04 09:13:48;;;;;;;11.82;8.52;;;;;;;24.72;100.00;102739.63;5035520;28;20080;-82
2023/09/04 09:16:20;;;;;;;9.95;8.43;;;;;;;24.81;100.00;102735.75;5035635;28;20041;-82
2023/09/04 09:18:47;;;;;;;11.25;8.35;;;;;;;24.98;100.00;102737.25;5035454;28;20038;-81
2023/09/04 09:21:30;;;;;;;9.07;8.18;;;;;;;24.87;100.00;102726.88;5035802;28;20461;-81
2023/09/04 09:24:19;;;;;;;10.43;8.00;;;;;;;25.05;100.00;102729.19;5035476;28;20493;-82
2023/09/04 09:26:49;;;;;;;11.02;8.25;;;;;;;25.33;100.00;102723.03;5035455;28;20029;-81
2023/09/04 09:29:16;;;;;;;8.32;7.20;;;;;;;25.27;100.00;102727.34;5035881;28;20113;-82
2023/09/04 09:31:45;;;;;;;7.88;7.10;;;;;;;25.54;100.00;102724.94;5035357;28;20151;-82
2023/09/04 09:34:10;;;;;;;13.27;7.25;;;;;;;25.83;100.00;102728.59;5034715;28;20029;-82
2023/09/04 09:36:36;;;;;;;9.70;7.00;;;;;;;26.03;96.18;102726.06;5035457;28;20386;-82
2023/09/04 09:39:03;;;;;;;7.32;6.63;;;;;;;26.29;100.00;102728.16;5033937;28;20467;-82
2023/09/04 09:41:29;;;;;;;9.93;7.57;;;;;;;26.28;96.94;102723.75;5034275;28;20413;-82
2023/09/04 09:43:54;;;;;;;7.63;6.63;;;;;;;25.96;96.58;102720.53;5033980;28;20040;-82
2023/09/04 09:46:20;;;;;;;7.78;6.75;;;;;;;25.93;100.00;102723.66;5035266;28;20486;-82
2023/09/04 09:48:46;;;;;;;11.43;7.20;;;;;;;25.78;100.00;102721.00;5035242;28;20033;-81
2023/09/04 09:51:12;;;;;;;7.47;6.78;;;;;;;26.20;98.28;102722.00;5035303;28;20470;-82
2023/09/04 09:53:47;;;;;;;12.30;8.07;;;;;;;25.99;97.41;102724.75;5035286;28;20116;-82
2023/09/04 09:56:14;;;;;;;9.00;7.18;;;;;;;26.18;100.00;102723.25;5034848;28;20052;-82
2023/09/04 09:58:42;;;;;;;10.65;8.05;;;;;;;26.19;100.00;102723.03;5034178;28;20097;-83
2023/09/04 10:01:08;;;;;;;8.77;7.20;;;;;;;26.33;100.00;102710.34;5034476;28;20034;-82
2023/09/04 10:03:35;;;;;;;9.32;6.50;;;;;;;26.37;94.95;102710.78;5035040;28;20393;-83
2023/09/04 10:06:04;;;;;;;12.43;6.40;;;;;;;26.27;99.48;102702.94;5034673;28;20068;-82
2023/09/04 10:08:32;;;;;;;9.13;6.45;;;;;;;26.22;97.70;102698.09;5034983;28;20113;-81
2023/09/04 10:11:01;;;;;;;7.68;6.35;;;;;;;26.22;99.73;102691.81;5034225;28;20099;-80
2023/09/04 10:13:30;;;;;;;12.10;6.70;;;;;;;26.22;100.00;102697.25;5034686;28;20026;-83
2023/09/04 10:16:01;;;;;;;7.63;6.75;;;;;;;26.38;95.86;102682.47;5034487;28;20044;-83
2023/09/04 10:18:28;;;;;;;;;;;;;;;26.39;100.00;102679.53;5035306;28;20033;-83
2023/09/04 10:20:56;;;;;;;9.02;5.75;;;;;;;26.74;97.81;102674.09;5034247;28;19913;-82
2023/09/04 10:23:24;;;;;;;6.80;6.10;;;;;;;26.92;98.44;102680.88;5034674;28;20033;-82
2023/09/04 10:26:07;;;;;;;9.43;7.10;;;;;;;26.76;95.73;102671.16;5034677;28;20037;-83
2023/09/04 10:28:40;;;;;;;8.60;6.25;;;;;;;26.28;96.58;102676.53;5034779;28;20041;-83
2023/09/04 10:31:06;;;;;;;6.95;6.25;;;;;;;26.12;100.00;102675.78;5032918;28;20025;-81
2023/09/04 10:33:32;;;;;;;7.80;6.05;;;;;;;26.10;100.00;102679.78;5034227;28;20030;-79
2023/09/04 10:35:58;;;;;;;11.60;6.50;;;;;;;26.22;100.00;102673.53;5032626;28;20029;-79
2023/09/04 10:38:25;;;;;;;9.75;7.15;;;;;;;26.68;100.00;102682.25;5034310;28;20026;-78
2023/09/04 10:40:51;;;;;;;8.73;7.10;;;;;;;26.82;96.40;102677.69;5032910;28;20029;-78
2023/09/04 10:43:16;;;;;;;13.38;7.45;;;;;;;27.17;100.00;102663.91;5033924;28;20151;-79
2023/09/04 10:45:42;;;;;;;11.38;7.15;;;;;;;27.40;100.00;102664.44;5033911;28;20474;-79
2023/09/04 10:48:07;;;;;;;8.98;7.05;;;;;;;27.80;96.83;102658.16;5033757;28;20444;-79
2023/09/04 10:50:39;;;;;;;9.00;8.10;;;;;;;28.08;88.59;102657.94;5032832;28;20038;-80
2023/09/04 10:53:07;;;;;;;10.57;8.32;;;;;;;27.69;89.05;102670.53;5033639;28;20035;-79
2023/09/04 10:55:37;;;;;;;13.18;6.95;;;;;;;27.79;99.84;102670.97;5032323;28;20083;-79
2023/09/04 10:58:07;;;;;;;12.52;6.30;;;;;;;28.21;95.89;102668.00;5033703;28;20032;-79
2023/09/04 11:00:40;;;;;;;5.63;5.00;;;;;;;28.27;76.25;102663.59;5033865;28;20056;-77
2023/09/04 11:03:19;;;;;;;5.82;4.45;;;;;;;28.44;80.94;102662.06;5033451;28;20037;-79